Jefferson City, MO (65101)

12:36 PM CDT on August 30, 2015 (GMT -0500)
ALGOA RD BOTTOMS | | Change Station
CLOSE
Current Station
Personal Weather Station
Location: Jefferson City, MO
Elevation: 610 ft
Nearby Weather Stations

Elev 610 ft 38.55 °N, 92.09 °W | Updated 14 minutes ago

Partly Cloudy
Partly Cloudy
88.2 °F
Feels Like 93 °F
N
6.8
Wind Variable Wind from WNW

Today
High -- | Low -- °F
--% Chance of Precip.
Yesterday
High -- | Low -- °F
Precip. -- in
6:36 AM 7:41 PM
Full, 99% visible
Pressure 29.99 in
Visibility 10.0 miles
Clouds Clear
Heat Index 93 °F
Dew Point 69 °F
Humidity 53%
Rainfall 0.00 in
Snow Depth Not available.
UV 9 out of 12
Pollen 10.30 out of 12
Air Quality Not available.
Flu Activity Not available.
METAR KJEF 301653Z 05003KT 10SM CLR 28/21 A3003 RMK AO2 SLP156 T02780206
Pressure 29.99 in
Visibility 10.0 miles
Clouds Clear
Heat Index 93 °F
Dew Point 69 °F
Humidity 53%
Rainfall 0.00 in
Snow Depth Not available.
UV 9 out of 12
Pollen 10.30 out of 12
Air Quality Not available.
Flu Activity Not available.
METAR KJEF 301653Z 05003KT 10SM CLR 28/21 A3003 RMK AO2 SLP156 T02780206

10-Day Weather Forecast

×

Almanac

Astronomy

Aug. 30, 2015 Rise Set
Actual Time
Civil Twilight
Nautical Twilight
Astronomical Twilight
Moon
Length of Visible Light
Length of Day
Tomorrow will be .
, % of the Moon is Illuminated

Today's Extremes

State Highs State Lows

Community

WunderPhotos

Upload Photos

1,851,014 photos uploaded!

WunderBlogs® & News

Nearby

Air Quality

  Air Quality AQ Index Pollutant
Not available.

Snow Depth

Station Depth Elevation

Earthquake Activity

City Distance Mag. Time & Date
Minimum magnitude displayed is 2.5.

Coastal Water Temperatures

Place Temperature

Stations

Nearby Weather Stations

Station Location Temp. Windchill Dew Point Humidity Wind Precip. Elev Updated Type